Airport View

Enter AWOS ICAO identifier for current METAR.

ex. KFNL

KTGI 250105Z AUTO 05009KT 10SM OVC015 17/14 A3018 RMK AO1 T01690140

25 May 2020 01:04

Frequency: 119.8

Phone: 757-891-2246

Other Area AWOS: KMFV - KW75 - KWAL - KNUI

TAF KNHK 2423/2523 VRB06KT 9999 OVC017 QNH3010INS TEMPO 2423/2505 6000 BR BKN025 OVC050 T14/2506Z T23/2521Z FN00230